createdAt,value
2022-09-10T00:01:42.360Z,23.80
2022-09-10T00:04:13.303Z,23.80
2022-09-10T00:06:42.293Z,23.80
2022-09-10T00:09:10.572Z,23.70
2022-09-10T00:11:40.790Z,23.80
2022-09-10T00:14:09.736Z,23.80
2022-09-10T00:16:37.951Z,23.70
2022-09-10T00:19:06.706Z,23.80
2022-09-10T00:21:36.207Z,23.80
2022-09-10T00:24:05.195Z,23.80
2022-09-10T00:26:35.329Z,23.80
2022-09-10T00:29:03.492Z,23.80
2022-09-10T00:31:32.030Z,23.80
2022-09-10T00:34:00.557Z,23.70
2022-09-10T00:36:29.928Z,23.70
2022-09-10T00:39:00.155Z,23.80
2022-09-10T00:41:28.671Z,23.80
2022-09-10T00:43:58.010Z,23.70
2022-09-10T00:46:38.393Z,23.70
2022-09-10T00:49:14.650Z,23.70
2022-09-10T00:51:42.847Z,23.70
2022-09-10T00:54:12.412Z,23.80
2022-09-10T00:56:40.513Z,23.80
2022-09-10T00:59:09.386Z,23.70
2022-09-10T01:01:38.427Z,23.70
2022-09-10T01:04:06.692Z,23.70
2022-09-10T01:06:35.036Z,23.70
2022-09-10T01:09:03.170Z,23.70
2022-09-10T01:11:39.930Z,23.70
2022-09-10T01:14:26.916Z,23.80
2022-09-10T01:16:58.042Z,23.70
2022-09-10T01:19:41.387Z,23.70
2022-09-10T01:22:14.116Z,23.70
2022-09-10T01:24:57.201Z,23.70
2022-09-10T01:27:47.682Z,23.70
2022-09-10T01:30:18.073Z,23.70
2022-09-10T01:32:53.602Z,23.70
2022-09-10T01:35:24.156Z,23.70
2022-09-10T01:37:53.378Z,23.70
2022-09-10T01:40:28.862Z,23.70
2022-09-10T01:43:02.269Z,23.60
2022-09-10T01:45:30.486Z,23.70
2022-09-10T01:48:16.600Z,23.70
2022-09-10T01:50:47.209Z,23.70
2022-09-10T01:53:23.980Z,23.70
2022-09-10T01:55:53.986Z,23.60
2022-09-10T01:58:26.480Z,23.70
2022-09-10T02:00:56.947Z,23.70
2022-09-10T02:03:26.147Z,23.70
2022-09-10T02:05:54.988Z,23.70
2022-09-10T02:08:25.020Z,23.70
2022-09-10T02:10:54.995Z,23.70
2022-09-10T02:13:24.554Z,23.70
2022-09-10T02:15:53.112Z,23.70
2022-09-10T02:18:21.414Z,23.70
2022-09-10T02:20:49.674Z,23.60
2022-09-10T02:23:18.532Z,23.60
2022-09-10T02:25:47.197Z,23.70
2022-09-10T02:28:15.373Z,23.60
2022-09-10T02:30:44.943Z,23.70
2022-09-10T02:33:16.296Z,23.70
2022-09-10T02:35:44.471Z,23.60
2022-09-10T02:38:12.636Z,23.70
2022-09-10T02:40:40.785Z,23.70
2022-09-10T02:43:09.109Z,23.60
2022-09-10T02:45:39.185Z,23.60
2022-09-10T02:48:08.779Z,23.70
2022-09-10T02:50:36.952Z,23.60
2022-09-10T02:53:05.138Z,23.60
2022-09-10T02:55:33.468Z,23.60
2022-09-10T02:58:01.716Z,23.60
2022-09-10T03:00:32.557Z,23.50
2022-09-10T03:03:03.095Z,23.60
2022-09-10T03:05:32.929Z,23.50
2022-09-10T03:08:01.549Z,23.60
2022-09-10T03:10:30.011Z,23.60
2022-09-10T03:12:58.196Z,23.60
2022-09-10T03:15:26.479Z,23.60
2022-09-10T03:17:54.715Z,23.60
2022-09-10T03:20:23.129Z,23.60
2022-09-10T03:22:52.660Z,23.60
2022-09-10T03:25:22.853Z,23.60
2022-09-10T03:27:51.060Z,23.60
2022-09-10T03:30:21.892Z,23.50
2022-09-10T03:32:50.376Z,23.60
2022-09-10T03:35:18.825Z,23.60
2022-09-10T03:37:47.027Z,23.60
2022-09-10T03:40:16.940Z,23.60
2022-09-10T03:42:45.100Z,23.60
2022-09-10T03:45:13.841Z,23.60
2022-09-10T03:47:42.044Z,23.60
2022-09-10T03:50:10.736Z,23.60
2022-09-10T03:52:39.015Z,23.60
2022-09-10T03:55:08.187Z,23.60
2022-09-10T03:57:39.013Z,23.50
2022-09-10T04:00:09.327Z,23.50
2022-09-10T04:02:37.466Z,23.60
2022-09-10T04:05:06.924Z,23.50
2022-09-10T04:07:35.145Z,23.60
2022-09-10T04:10:03.323Z,23.60
2022-09-10T04:12:31.520Z,23.50
2022-09-10T04:15:01.668Z,23.60
2022-09-10T04:17:29.805Z,23.60
2022-09-10T04:19:57.996Z,23.50
2022-09-10T04:22:27.694Z,23.50
2022-09-10T04:24:56.600Z,23.60
2022-09-10T04:27:25.621Z,23.60
2022-09-10T04:29:54.003Z,23.50
2022-09-10T04:32:23.817Z,23.60
2022-09-10T04:34:52.077Z,23.60
2022-09-10T04:37:21.364Z,23.50
2022-09-10T04:39:49.626Z,23.50
2022-09-10T04:42:19.176Z,23.50
2022-09-10T04:44:49.222Z,23.50
2022-09-10T04:47:17.659Z,23.50
2022-09-10T04:49:47.266Z,23.50
2022-09-10T04:52:17.151Z,23.60
2022-09-10T04:54:45.804Z,23.50
2022-09-10T04:57:15.129Z,23.40
2022-09-10T04:59:43.536Z,23.50
2022-09-10T05:02:11.728Z,23.50
2022-09-10T05:04:40.177Z,23.50
2022-09-10T05:07:09.748Z,23.50
2022-09-10T05:09:37.971Z,23.50
2022-09-10T05:12:06.653Z,23.50
2022-09-10T05:14:34.849Z,23.60
2022-09-10T05:17:03.484Z,23.50
2022-09-10T05:19:31.650Z,23.60
2022-09-10T05:21:59.909Z,23.50
2022-09-10T05:24:29.503Z,23.50
2022-09-10T05:26:59.299Z,23.60
2022-09-10T05:29:27.911Z,23.50
2022-09-10T05:31:56.163Z,23.50
2022-09-10T05:34:24.769Z,23.50
2022-09-10T05:36:53.030Z,23.50
2022-09-10T05:39:21.180Z,23.50
2022-09-10T05:41:50.792Z,23.50
2022-09-10T05:44:19.209Z,23.60
2022-09-10T05:46:48.291Z,23.60
2022-09-10T05:49:16.804Z,23.50
2022-09-10T05:51:44.984Z,23.60
2022-09-10T05:54:13.158Z,23.60
2022-09-10T05:56:41.353Z,23.60
2022-09-10T05:59:11.115Z,23.50
2022-09-10T06:01:39.360Z,23.60
2022-09-10T06:04:07.966Z,23.60
2022-09-10T06:06:36.137Z,23.50
2022-09-10T06:09:04.355Z,23.60
2022-09-10T06:11:33.030Z,23.50
2022-09-10T06:14:01.190Z,23.50
2022-09-10T06:16:31.318Z,23.50
2022-09-10T06:18:59.707Z,23.60
2022-09-10T06:21:29.425Z,23.60
2022-09-10T06:23:57.575Z,23.50
2022-09-10T06:26:25.774Z,23.60
2022-09-10T06:28:55.337Z,23.50
2022-09-10T06:31:23.575Z,23.50
2022-09-10T06:33:53.189Z,23.50
2022-09-10T06:36:21.396Z,23.60
2022-09-10T06:38:49.634Z,23.60
2022-09-10T06:41:18.603Z,23.50
2022-09-10T06:43:46.881Z,23.60
2022-09-10T06:46:50.831Z,23.60
2022-09-10T06:49:06.152Z,23.60
2022-09-10T06:51:34.413Z,23.60
2022-09-10T06:54:03.010Z,23.60
2022-09-10T06:56:31.226Z,23.60
2022-09-10T06:59:02.123Z,23.50
2022-09-10T07:01:30.983Z,23.60
2022-09-10T07:03:59.903Z,23.50
2022-09-10T07:06:31.908Z,23.60
2022-09-10T07:09:00.078Z,23.60
2022-09-10T07:11:28.854Z,23.60
2022-09-10T07:13:57.020Z,23.50
2022-09-10T07:16:26.117Z,23.60
2022-09-10T07:18:55.714Z,23.60
2022-09-10T07:21:25.374Z,23.60
2022-09-10T07:23:57.590Z,23.60
2022-09-10T07:26:25.788Z,23.50
2022-09-10T07:28:54.007Z,23.60
2022-09-10T07:31:23.105Z,23.60
2022-09-10T07:33:51.382Z,23.60
2022-09-10T07:36:19.594Z,23.60
2022-09-10T07:38:48.055Z,23.60
2022-09-10T07:41:17.700Z,23.60
2022-09-10T07:43:45.872Z,23.60
2022-09-10T07:46:14.942Z,23.70
2022-09-10T07:48:43.154Z,23.70
2022-09-10T07:51:11.854Z,23.60
2022-09-10T07:53:47.555Z,23.60
2022-09-10T07:56:20.518Z,23.60
2022-09-10T07:58:48.702Z,23.70
2022-09-10T08:01:16.960Z,23.70
2022-09-10T08:03:45.588Z,23.60
2022-09-10T08:06:13.789Z,23.70
2022-09-10T08:08:42.837Z,23.70
2022-09-10T08:11:13.186Z,23.70
2022-09-10T08:13:45.460Z,23.70
2022-09-10T08:16:15.420Z,23.70
2022-09-10T08:18:43.891Z,23.60
2022-09-10T08:21:12.123Z,23.70
2022-09-10T08:23:40.490Z,23.70
2022-09-10T08:26:09.260Z,23.80
2022-09-10T08:28:37.702Z,23.80
2022-09-10T08:31:08.741Z,23.80
2022-09-10T08:33:38.273Z,23.70
2022-09-10T08:36:06.929Z,23.80
2022-09-10T08:38:36.101Z,23.80
2022-09-10T08:41:09.742Z,23.80
2022-09-10T08:43:41.878Z,23.80
2022-09-10T08:46:15.316Z,23.80
2022-09-10T08:48:43.824Z,23.80
2022-09-10T08:51:13.669Z,23.80
2022-09-10T08:53:45.449Z,23.80
2022-09-10T08:56:16.255Z,23.90
2022-09-10T08:58:45.286Z,23.90
2022-09-10T09:01:16.509Z,23.80
2022-09-10T09:03:45.621Z,23.90
2022-09-10T09:06:22.935Z,23.80
2022-09-10T09:08:51.115Z,23.80
2022-09-10T09:11:22.934Z,23.80
2022-09-10T09:13:56.731Z,23.80
2022-09-10T09:16:35.257Z,23.80
2022-09-10T09:19:07.557Z,23.90
2022-09-10T09:21:41.730Z,23.90
2022-09-10T09:24:14.642Z,23.90
2022-09-10T09:26:42.802Z,23.90
2022-09-10T09:29:14.195Z,23.80
2022-09-10T09:31:45.755Z,23.80
2022-09-10T09:34:19.322Z,23.80
2022-09-10T09:36:49.251Z,23.80
2022-09-10T09:39:21.273Z,23.80
2022-09-10T09:41:55.627Z,23.90
2022-09-10T09:44:25.516Z,23.90
2022-09-10T09:46:55.220Z,23.90
2022-09-10T09:49:23.367Z,23.90
2022-09-10T09:51:51.972Z,23.90
2022-09-10T09:57:16.227Z,23.90
2022-09-10T09:59:45.006Z,24.00
2022-09-10T10:02:15.456Z,23.90
2022-09-10T10:04:55.041Z,23.90
2022-09-10T10:07:28.123Z,23.90
2022-09-10T10:10:01.161Z,23.90
2022-09-10T10:12:31.708Z,23.90
2022-09-10T10:15:00.179Z,23.90
2022-09-10T10:17:37.575Z,24.00
2022-09-10T10:20:10.981Z,24.00
2022-09-10T10:22:39.425Z,23.90
2022-09-10T10:25:33.166Z,23.90
2022-09-10T10:28:01.847Z,23.90
2022-09-10T10:30:30.288Z,23.90
2022-09-10T10:33:00.386Z,23.90
2022-09-10T10:35:39.184Z,23.90
2022-09-10T10:38:21.223Z,23.90
2022-09-10T10:40:51.906Z,23.90
2022-09-10T10:43:24.696Z,24.00
2022-09-10T10:45:56.966Z,23.90
2022-09-10T10:48:33.602Z,24.00
2022-09-10T10:51:11.830Z,23.90
2022-09-10T10:53:51.782Z,24.00
2022-09-10T10:56:26.125Z,23.90
2022-09-10T10:59:04.516Z,24.00
2022-09-10T11:01:35.095Z,24.00
2022-09-10T11:04:09.716Z,23.90
2022-09-10T11:06:39.497Z,23.90
2022-09-10T11:09:08.813Z,23.90
2022-09-10T11:11:38.634Z,23.90
2022-09-10T11:14:13.963Z,23.90
2022-09-10T11:16:45.006Z,24.00
2022-09-10T11:19:17.290Z,23.90
2022-09-10T11:21:49.377Z,23.90
2022-09-10T11:24:18.891Z,23.90
2022-09-10T11:26:48.729Z,23.90
2022-09-10T11:29:25.399Z,23.90
2022-09-10T11:31:59.321Z,23.90
2022-09-10T11:34:31.059Z,24.00
2022-09-10T11:37:02.047Z,23.90
2022-09-10T11:39:33.401Z,24.00
2022-09-10T11:42:03.462Z,24.00
2022-09-10T11:44:38.860Z,23.90
2022-09-10T11:47:09.279Z,23.90
2022-09-10T11:49:43.275Z,23.90
2022-09-10T11:52:12.572Z,24.00
2022-09-10T11:54:40.746Z,24.00
2022-09-10T11:57:11.473Z,24.00
2022-09-10T11:59:50.532Z,24.00
2022-09-10T12:03:00.668Z,24.00
2022-09-10T12:05:32.735Z,24.00
2022-09-10T12:08:05.032Z,24.00
2022-09-10T12:10:34.749Z,24.00
2022-09-10T12:13:03.083Z,24.00
2022-09-10T12:15:34.277Z,24.00
2022-09-10T12:18:04.515Z,24.00
2022-09-10T12:20:35.085Z,24.00
2022-09-10T12:23:16.522Z,24.00
2022-09-10T12:25:46.791Z,24.00
2022-09-10T12:28:48.957Z,24.10
2022-09-10T12:31:17.842Z,24.00
2022-09-10T12:34:12.539Z,24.00
2022-09-10T12:37:19.262Z,24.00
2022-09-10T12:39:47.559Z,24.00
2022-09-10T12:42:32.323Z,24.00
2022-09-10T12:45:01.065Z,24.00
2022-09-10T12:47:42.317Z,24.10
2022-09-10T12:50:46.494Z,24.10
2022-09-10T12:53:54.913Z,24.10
2022-09-10T12:56:53.066Z,24.00
2022-09-10T12:59:49.594Z,24.00
2022-09-10T13:02:30.527Z,24.00
2022-09-10T13:05:03.987Z,24.10
2022-09-10T13:07:36.300Z,24.00
2022-09-10T13:10:09.170Z,24.10
2022-09-10T13:12:40.821Z,24.10
2022-09-10T13:15:20.463Z,24.10
2022-09-10T13:18:30.193Z,24.10
2022-09-10T13:21:00.510Z,24.10
2022-09-10T13:23:56.515Z,24.10
2022-09-10T13:26:54.138Z,24.10
2022-09-10T13:29:33.116Z,24.10
2022-09-10T13:32:07.299Z,24.10
2022-09-10T13:35:21.389Z,24.10
2022-09-10T13:38:07.552Z,24.10
2022-09-10T13:40:52.132Z,24.10
2022-09-10T13:43:41.906Z,24.10
2022-09-10T13:46:12.758Z,24.10
2022-09-10T13:48:44.930Z,24.10
2022-09-10T13:51:18.749Z,24.10
2022-09-10T13:53:49.648Z,24.10
2022-09-10T13:56:21.523Z,24.10
2022-09-10T13:58:53.015Z,24.20
2022-09-10T14:01:24.223Z,24.20
2022-09-10T14:03:56.452Z,24.30
2022-09-10T14:06:25.428Z,24.30
2022-09-10T14:09:04.146Z,24.30
2022-09-10T14:11:39.079Z,24.30
2022-09-10T14:14:11.024Z,24.20
2022-09-10T14:16:41.777Z,24.30
2022-09-10T14:19:16.085Z,24.30
2022-09-10T14:21:50.954Z,24.40
2022-09-10T14:24:34.030Z,24.50
2022-09-10T14:27:17.162Z,24.40
2022-09-10T14:29:48.274Z,24.50
2022-09-10T14:32:31.486Z,24.50
2022-09-10T14:35:07.436Z,24.50
2022-09-10T14:37:43.859Z,24.50
2022-09-10T14:40:19.322Z,24.50
2022-09-10T14:42:52.163Z,24.40
2022-09-10T14:45:42.713Z,24.40
2022-09-10T14:48:37.564Z,24.40
2022-09-10T14:51:18.666Z,24.40
2022-09-10T14:53:48.582Z,24.40
2022-09-10T14:56:27.825Z,24.30
2022-09-10T14:59:00.335Z,24.30
2022-09-10T15:01:40.624Z,24.30
2022-09-10T15:04:13.201Z,24.30
2022-09-10T15:06:45.819Z,24.30
2022-09-10T15:09:16.537Z,24.30
2022-09-10T15:11:49.742Z,24.30
2022-09-10T15:14:19.229Z,24.20
2022-09-10T15:16:52.576Z,24.30
2022-09-10T15:19:20.800Z,24.30
2022-09-10T15:21:49.136Z,24.20
2022-09-10T15:24:18.552Z,24.20
2022-09-10T15:26:46.825Z,24.20
2022-09-10T15:29:15.834Z,24.20
2022-09-10T15:31:44.655Z,24.20
2022-09-10T15:34:14.440Z,24.10
2022-09-10T15:36:42.679Z,24.10
2022-09-10T15:39:12.944Z,24.10
2022-09-10T15:41:42.595Z,24.10
2022-09-10T15:44:10.801Z,24.10
2022-09-10T15:46:41.724Z,24.10
2022-09-10T15:49:10.111Z,24.10
2022-09-10T15:51:39.835Z,24.10
2022-09-10T15:54:07.965Z,24.10
2022-09-10T15:56:36.793Z,24.10
2022-09-10T15:59:05.780Z,24.00
2022-09-10T16:01:34.036Z,24.10
2022-09-10T16:04:03.180Z,24.00
2022-09-10T16:06:33.280Z,24.00
2022-09-10T16:09:04.420Z,24.10
2022-09-10T16:11:34.048Z,24.10
2022-09-10T16:14:13.565Z,24.10
2022-09-10T16:16:42.590Z,24.10
2022-09-10T16:21:58.323Z,24.20
2022-09-10T16:24:28.855Z,24.10
2022-09-10T16:26:57.725Z,24.10
2022-09-10T16:29:25.925Z,24.10
2022-09-10T16:31:54.046Z,24.10
2022-09-10T16:34:22.362Z,24.10
2022-09-10T16:36:51.019Z,24.10
2022-09-10T16:39:19.740Z,24.10
2022-09-10T16:41:51.959Z,24.00
2022-09-10T16:44:35.294Z,24.00
2022-09-10T16:47:04.138Z,24.00
2022-09-10T16:49:32.703Z,24.00
2022-09-10T16:52:01.136Z,24.00
2022-09-10T16:54:32.048Z,24.00
2022-09-10T16:57:02.258Z,24.00
2022-09-10T16:59:31.194Z,24.00
2022-09-10T17:02:00.835Z,24.00
2022-09-10T17:04:30.471Z,24.00
2022-09-10T17:07:00.246Z,23.90
2022-09-10T17:09:29.912Z,24.00
2022-09-10T17:11:59.003Z,23.90
2022-09-10T17:14:30.607Z,23.90
2022-09-10T17:17:00.262Z,24.00
2022-09-10T17:19:29.689Z,23.90
2022-09-10T17:22:00.144Z,23.90
2022-09-10T17:24:35.392Z,23.90
2022-09-10T17:27:04.156Z,23.90
2022-09-10T17:29:37.426Z,23.90
2022-09-10T17:32:06.745Z,23.90
2022-09-10T17:34:35.969Z,23.80
2022-09-10T17:37:04.809Z,23.80
2022-09-10T17:39:34.444Z,23.90
2022-09-10T17:42:03.812Z,23.80
2022-09-10T17:44:33.405Z,23.90
2022-09-10T17:47:03.768Z,23.80
2022-09-10T17:49:33.833Z,23.80
2022-09-10T17:52:05.773Z,23.80
2022-09-10T17:54:34.620Z,23.90
2022-09-10T17:57:03.780Z,23.80
2022-09-10T17:59:33.357Z,23.70
2022-09-10T18:02:05.384Z,23.80
2022-09-10T18:04:37.200Z,23.80
2022-09-10T18:07:07.662Z,23.90
2022-09-10T18:09:37.286Z,23.80
2022-09-10T18:12:07.715Z,23.80
2022-09-10T18:14:40.556Z,23.80
2022-09-10T18:17:13.990Z,23.80
2022-09-10T18:19:42.900Z,23.80
2022-09-10T18:22:14.215Z,23.80
2022-09-10T18:24:45.790Z,23.80
2022-09-10T18:27:17.865Z,23.70
2022-09-10T18:29:48.168Z,23.80
2022-09-10T18:32:18.422Z,23.80
2022-09-10T18:34:47.329Z,23.70
2022-09-10T18:37:16.307Z,23.80
2022-09-10T18:39:48.296Z,23.70
2022-09-10T18:42:17.194Z,23.70
2022-09-10T18:44:46.025Z,23.70
2022-09-10T18:47:34.054Z,23.70
2022-09-10T18:50:04.952Z,23.70
2022-09-10T18:52:36.250Z,23.60
2022-09-10T18:55:04.727Z,23.80
2022-09-10T18:57:32.895Z,23.70
2022-09-10T19:00:04.105Z,23.70
2022-09-10T19:02:32.418Z,23.70
2022-09-10T19:05:13.694Z,23.70
2022-09-10T19:07:43.405Z,23.70
2022-09-10T19:10:11.622Z,23.70
2022-09-10T19:12:47.466Z,23.60
2022-09-10T19:15:15.727Z,23.70
2022-09-10T19:17:43.974Z,23.60
2022-09-10T19:20:12.238Z,23.70
2022-09-10T19:22:40.447Z,23.60
2022-09-10T19:25:10.424Z,23.70
2022-09-10T19:27:38.605Z,23.60
2022-09-10T19:30:08.027Z,23.70
2022-09-10T19:32:36.232Z,23.60
2022-09-10T19:35:04.655Z,23.60
2022-09-10T19:37:32.833Z,23.60
2022-09-10T19:40:01.045Z,23.60
2022-09-10T19:42:31.206Z,23.60
2022-09-10T19:44:59.423Z,23.60
2022-09-10T19:47:27.661Z,23.60
2022-09-10T19:49:55.985Z,23.70
2022-09-10T19:52:25.633Z,23.60
2022-09-10T19:54:53.836Z,23.60
2022-09-10T19:57:22.742Z,23.60
2022-09-10T19:59:52.322Z,23.60
2022-09-10T20:02:20.522Z,23.60
2022-09-10T20:04:48.689Z,23.60
2022-09-10T20:07:16.931Z,23.60
2022-09-10T20:09:45.082Z,23.60
2022-09-10T20:12:13.550Z,23.60
2022-09-10T20:14:41.669Z,23.60
2022-09-10T20:17:12.539Z,23.60
2022-09-10T20:19:42.715Z,23.60
2022-09-10T20:22:10.982Z,23.60
2022-09-10T20:24:39.272Z,23.60
2022-09-10T20:27:07.450Z,23.60
2022-09-10T20:29:35.792Z,23.60
2022-09-10T20:32:04.307Z,23.50
2022-09-10T20:34:35.045Z,23.60
2022-09-10T20:37:03.907Z,23.50
2022-09-10T20:39:32.050Z,23.60
2022-09-10T20:42:00.653Z,23.60
2022-09-10T20:44:30.110Z,23.50
2022-09-10T20:46:58.372Z,23.60
2022-09-10T20:49:26.587Z,23.60
2022-09-10T20:51:56.313Z,23.60
2022-09-10T20:54:24.493Z,23.60
2022-09-10T20:56:52.684Z,23.50
2022-09-10T20:59:23.279Z,23.60
2022-09-10T21:01:56.849Z,23.50
2022-09-10T21:04:26.444Z,23.60
2022-09-10T21:06:56.336Z,23.60
2022-09-10T21:09:28.278Z,23.50
2022-09-10T21:11:56.530Z,23.50
2022-09-10T21:14:25.675Z,23.50
2022-09-10T21:16:53.899Z,23.50
2022-09-10T21:19:22.321Z,23.60
2022-09-10T21:21:50.530Z,23.50
2022-09-10T21:24:22.531Z,23.50
2022-09-10T21:26:50.767Z,23.50
2022-09-10T21:29:19.917Z,23.60
2022-09-10T21:31:50.585Z,23.60
2022-09-10T21:34:20.466Z,23.60
2022-09-10T21:36:48.830Z,23.50
2022-09-10T21:39:17.913Z,23.60
2022-09-10T21:41:48.199Z,23.60
2022-09-10T21:44:17.420Z,23.50
2022-09-10T21:46:45.690Z,23.60
2022-09-10T21:49:14.084Z,23.50
2022-09-10T21:51:42.596Z,23.50
2022-09-10T21:54:14.460Z,23.50
2022-09-10T21:56:42.660Z,23.50
2022-09-10T21:59:12.979Z,23.50
2022-09-10T22:01:42.104Z,23.50
2022-09-10T22:04:11.161Z,23.50
2022-09-10T22:06:39.359Z,23.50
2022-09-10T22:09:08.467Z,23.50
2022-09-10T22:11:39.176Z,23.40
2022-09-10T22:14:08.141Z,23.50
2022-09-10T22:16:37.669Z,23.50
2022-09-10T22:19:08.883Z,23.50
2022-09-10T22:21:38.373Z,23.50
2022-09-10T22:24:06.633Z,23.50
2022-09-10T22:26:34.811Z,23.50
2022-09-10T22:29:03.439Z,23.50
2022-09-10T22:31:32.808Z,23.50
2022-09-10T22:34:03.093Z,23.50
2022-09-10T22:36:32.148Z,23.50
2022-09-10T22:39:01.244Z,23.50
2022-09-10T22:41:29.899Z,23.60
2022-09-10T22:43:58.184Z,23.50
2022-09-10T22:46:26.752Z,23.50
2022-09-10T22:48:56.236Z,23.50
2022-09-10T22:51:26.660Z,23.50
2022-09-10T22:53:55.194Z,23.50
2022-09-10T22:56:23.939Z,23.40
2022-09-10T22:58:52.628Z,23.40
2022-09-10T23:01:22.852Z,23.50
2022-09-10T23:03:52.218Z,23.50
2022-09-10T23:06:21.760Z,23.50
2022-09-10T23:08:52.847Z,23.50
2022-09-10T23:11:22.012Z,23.40
2022-09-10T23:13:50.881Z,23.40
2022-09-10T23:16:20.375Z,23.50
2022-09-10T23:18:50.585Z,23.40
2022-09-10T23:21:19.136Z,23.50
2022-09-10T23:23:47.656Z,23.40
2022-09-10T23:26:17.342Z,23.40
2022-09-10T23:28:45.649Z,23.40
2022-09-10T23:31:15.139Z,23.40
2022-09-10T23:33:43.620Z,23.50
2022-09-10T23:36:13.324Z,23.50
2022-09-10T23:38:41.610Z,23.50
2022-09-10T23:41:09.915Z,23.50
2022-09-10T23:43:41.635Z,23.50
2022-09-10T23:46:10.025Z,23.50
2022-09-10T23:48:38.319Z,23.40
2022-09-10T23:51:06.921Z,23.50
2022-09-10T23:53:35.150Z,23.50
2022-09-10T23:56:03.903Z,23.50
2022-09-10T23:58:32.043Z,23.50
